createdAt,value
2018-07-27T00:00:58.570Z,34.47
2018-07-27T00:03:26.883Z,30.30
2018-07-27T00:05:55.233Z,24.57
2018-07-27T00:08:23.564Z,17.07
2018-07-27T00:10:51.906Z,43.00
2018-07-27T00:13:20.255Z,33.23
2018-07-27T00:15:48.584Z,21.17
2018-07-27T00:18:16.933Z,15.30
2018-07-27T00:20:45.295Z,14.40
2018-07-27T00:23:13.672Z,13.20
2018-07-27T00:25:42.007Z,12.00
2018-07-27T00:28:10.346Z,11.17
2018-07-27T00:30:38.699Z,10.90
2018-07-27T00:33:07.091Z,10.50
2018-07-27T00:35:35.427Z,9.77
2018-07-27T00:38:04.192Z,9.37
2018-07-27T00:40:32.826Z,8.93
2018-07-27T00:43:01.207Z,8.47
2018-07-27T00:45:29.519Z,8.90
2018-07-27T00:47:57.918Z,8.67
2018-07-27T00:50:26.379Z,8.93
2018-07-27T00:52:54.684Z,8.77
2018-07-27T00:55:23.015Z,8.50
2018-07-27T00:57:51.085Z,8.90
2018-07-27T01:00:19.166Z,8.73
2018-07-27T01:02:47.475Z,8.63
2018-07-27T01:05:15.803Z,8.70
2018-07-27T01:07:44.135Z,9.57
2018-07-27T01:10:12.486Z,7.70
2018-07-27T01:12:40.875Z,9.60
2018-07-27T01:15:09.248Z,10.20
2018-07-27T01:17:37.564Z,9.63
2018-07-27T01:20:06.878Z,9.43
2018-07-27T01:22:35.192Z,9.10
2018-07-27T01:25:03.579Z,10.33
2018-07-27T01:27:32.000Z,10.43
2018-07-27T01:30:00.316Z,9.10
2018-07-27T01:32:28.875Z,8.90
2018-07-27T01:34:57.469Z,9.30
2018-07-27T01:37:25.823Z,9.70
2018-07-27T01:39:54.140Z,8.97
2018-07-27T01:42:22.451Z,9.37
2018-07-27T01:44:50.808Z,9.83
2018-07-27T01:47:19.138Z,9.17
2018-07-27T01:49:47.464Z,8.90
2018-07-27T01:52:15.830Z,9.07
2018-07-27T01:54:44.172Z,9.50
2018-07-27T01:57:12.491Z,9.50
2018-07-27T01:59:40.815Z,9.50
2018-07-27T02:02:09.166Z,9.17
2018-07-27T02:04:37.471Z,9.47
2018-07-27T02:07:06.081Z,9.17
2018-07-27T02:09:34.429Z,9.30
2018-07-27T02:12:02.755Z,9.03
2018-07-27T02:14:30.889Z,9.43
2018-07-27T02:16:59.190Z,9.03
2018-07-27T02:19:27.503Z,8.97
2018-07-27T02:21:55.818Z,9.53
2018-07-27T02:24:24.142Z,9.27
2018-07-27T02:26:52.605Z,9.10
2018-07-27T02:29:20.902Z,9.03
2018-07-27T02:31:49.231Z,8.83
2018-07-27T02:34:17.556Z,8.97
2018-07-27T02:36:45.923Z,8.70
2018-07-27T02:39:14.215Z,10.00
2018-07-27T02:41:42.522Z,8.27
2018-07-27T02:44:10.891Z,9.87
2018-07-27T02:46:39.285Z,9.37
2018-07-27T02:49:07.571Z,8.83
2018-07-27T02:51:36.379Z,8.47
2018-07-27T02:54:04.711Z,9.27
2018-07-27T02:56:33.031Z,8.73
2018-07-27T02:59:01.365Z,8.80
2018-07-27T03:01:29.675Z,8.20
2018-07-27T03:03:58.285Z,7.87
2018-07-27T03:06:26.603Z,8.03
2018-07-27T03:08:54.927Z,8.17
2018-07-27T03:11:23.227Z,8.10
2018-07-27T03:13:51.536Z,8.17
2018-07-27T03:16:19.838Z,7.73
2018-07-27T03:18:48.134Z,8.33
2018-07-27T03:21:16.446Z,7.60
2018-07-27T03:23:44.763Z,8.20
2018-07-27T03:26:13.099Z,7.50
2018-07-27T03:28:41.506Z,8.23
2018-07-27T03:31:09.836Z,8.17
2018-07-27T03:33:38.135Z,7.50
2018-07-27T03:36:06.456Z,8.20
2018-07-27T03:38:34.785Z,7.57
2018-07-27T03:41:03.090Z,8.40
2018-07-27T03:43:31.415Z,7.87
2018-07-27T03:45:59.747Z,7.57
2018-07-27T03:48:28.071Z,8.43
2018-07-27T03:50:56.374Z,7.20
2018-07-27T03:53:24.706Z,7.17
2018-07-27T03:55:53.011Z,8.13
2018-07-27T03:58:21.325Z,7.67
2018-07-27T04:00:49.626Z,7.70
2018-07-27T04:03:18.075Z,7.73
2018-07-27T04:05:46.397Z,7.27
2018-07-27T04:08:14.891Z,7.73
2018-07-27T04:10:43.186Z,7.07
2018-07-27T04:13:11.209Z,7.60
2018-07-27T04:15:39.571Z,7.63
2018-07-27T04:18:07.871Z,6.80
2018-07-27T04:20:36.205Z,8.00
2018-07-27T04:23:04.500Z,7.07
2018-07-27T04:25:32.820Z,6.97
2018-07-27T04:28:01.150Z,7.73
2018-07-27T04:30:29.478Z,7.13
2018-07-27T04:32:58.144Z,7.20
2018-07-27T04:35:26.497Z,7.60
2018-07-27T04:37:54.811Z,7.40
2018-07-27T04:40:23.101Z,7.03
2018-07-27T04:42:51.480Z,7.73
2018-07-27T04:45:19.818Z,7.80
2018-07-27T04:47:48.126Z,7.87
2018-07-27T04:50:16.430Z,7.70
2018-07-27T04:52:44.754Z,7.10
2018-07-27T04:55:13.075Z,7.73
2018-07-27T04:57:41.397Z,6.80
2018-07-27T05:00:09.727Z,6.80
2018-07-27T05:02:38.050Z,7.60
2018-07-27T05:05:06.364Z,7.47
2018-07-27T05:07:34.667Z,8.30
2018-07-27T05:10:07.344Z,7.23
2018-07-27T05:12:35.643Z,8.50
2018-07-27T05:15:04.059Z,9.43
2018-07-27T05:17:32.431Z,14.53
2018-07-27T05:20:00.791Z,16.97
2018-07-27T05:22:29.238Z,14.33
2018-07-27T05:24:57.608Z,16.30
2018-07-27T05:27:25.911Z,26.17
2018-07-27T05:29:54.010Z,17.63
2018-07-27T05:32:22.387Z,24.33
2018-07-27T05:34:51.146Z,14.30
2018-07-27T05:37:19.266Z,11.60
2018-07-27T05:39:47.555Z,10.97
2018-07-27T05:42:15.894Z,10.00
2018-07-27T05:44:44.306Z,10.20
2018-07-27T05:47:13.082Z,9.10
2018-07-27T05:49:41.585Z,10.43
2018-07-27T05:52:09.961Z,11.27
2018-07-27T05:54:38.301Z,11.13
2018-07-27T05:57:06.657Z,17.60
2018-07-27T05:59:34.954Z,13.20
2018-07-27T06:02:03.389Z,11.27
2018-07-27T06:04:31.707Z,9.93
2018-07-27T06:07:00.379Z,9.50
2018-07-27T06:09:28.678Z,7.77
2018-07-27T06:11:56.984Z,8.10
2018-07-27T06:14:25.369Z,7.90
2018-07-27T06:16:53.659Z,9.10
2018-07-27T06:19:21.971Z,9.67
2018-07-27T06:21:50.374Z,14.77
2018-07-27T06:24:18.779Z,9.97
2018-07-27T06:26:47.006Z,10.40
2018-07-27T06:29:15.717Z,8.40
2018-07-27T06:31:44.004Z,8.57
2018-07-27T06:34:12.718Z,8.23
2018-07-27T06:36:41.066Z,7.80
2018-07-27T06:39:10.920Z,7.93
2018-07-27T06:41:39.586Z,6.50
2018-07-27T06:44:07.916Z,7.20
2018-07-27T06:46:36.475Z,6.70
2018-07-27T06:49:04.792Z,6.40
2018-07-27T06:51:33.079Z,6.47
2018-07-27T06:54:01.368Z,6.63
2018-07-27T06:56:29.687Z,10.47
2018-07-27T06:58:57.997Z,9.30
2018-07-27T07:01:26.306Z,8.53
2018-07-27T07:03:54.611Z,6.97
2018-07-27T07:06:22.907Z,7.50
2018-07-27T07:08:51.202Z,6.43
2018-07-27T07:11:19.515Z,6.03
2018-07-27T07:13:47.664Z,5.23
2018-07-27T07:16:16.003Z,6.00
2018-07-27T07:18:44.299Z,6.10
2018-07-27T07:21:12.630Z,6.47
2018-07-27T07:23:41.057Z,6.70
2018-07-27T07:26:09.714Z,5.53
2018-07-27T07:28:38.031Z,6.07
2018-07-27T07:31:06.362Z,6.03
2018-07-27T07:33:34.665Z,5.90
2018-07-27T07:36:03.026Z,5.57
2018-07-27T07:38:31.368Z,5.97
2018-07-27T07:40:59.802Z,5.40
2018-07-27T07:43:28.454Z,6.87
2018-07-27T07:45:56.756Z,8.27
2018-07-27T07:48:25.059Z,10.33
2018-07-27T07:50:53.423Z,10.40
2018-07-27T07:53:21.740Z,12.47
2018-07-27T07:55:50.055Z,12.83
2018-07-27T07:58:18.374Z,15.93
2018-07-27T08:00:47.171Z,14.20
2018-07-27T08:03:15.591Z,13.80
2018-07-27T08:05:43.982Z,14.60
2018-07-27T08:08:12.389Z,14.03
2018-07-27T08:10:40.682Z,13.50
2018-07-27T08:13:09.060Z,16.90
2018-07-27T08:15:37.379Z,25.37
2018-07-27T08:18:05.693Z,28.17
2018-07-27T08:20:34.297Z,34.40
2018-07-27T08:23:02.783Z,34.17
2018-07-27T08:26:44.270Z,31.97
2018-07-27T08:29:13.663Z,31.40
2018-07-27T08:31:43.915Z,30.77
2018-07-27T08:34:13.082Z,31.13
2018-07-27T08:36:41.382Z,24.73
2018-07-27T08:39:12.274Z,21.53
2018-07-27T08:41:40.984Z,21.83
2018-07-27T08:44:10.296Z,20.07
2018-07-27T08:46:38.874Z,20.17
2018-07-27T08:49:07.558Z,23.57
2018-07-27T08:51:35.758Z,29.50
2018-07-27T08:54:04.204Z,30.17
2018-07-27T08:56:32.495Z,35.83
2018-07-27T08:59:00.828Z,35.10
2018-07-27T09:01:29.136Z,34.67
2018-07-27T09:03:57.538Z,34.13
2018-07-27T09:06:25.771Z,34.80
2018-07-27T09:08:54.295Z,32.60
2018-07-27T09:11:22.965Z,31.50
2018-07-27T09:13:51.774Z,28.27
2018-07-27T09:16:20.434Z,25.67
2018-07-27T09:18:48.914Z,26.13
2018-07-27T09:21:17.244Z,26.37
2018-07-27T09:23:45.600Z,24.97
2018-07-27T09:26:13.681Z,25.00
2018-07-27T09:28:42.170Z,25.23
2018-07-27T09:31:10.499Z,25.57
2018-07-27T09:33:38.818Z,24.23
2018-07-27T09:36:07.157Z,23.70
2018-07-27T09:38:35.518Z,23.70
2018-07-27T09:41:03.851Z,22.20
2018-07-27T09:43:34.127Z,21.80
2018-07-27T09:46:02.454Z,22.90
2018-07-27T09:48:30.924Z,22.33
2018-07-27T09:50:59.242Z,20.97
2018-07-27T09:53:27.534Z,21.43
2018-07-27T09:55:55.846Z,21.10
2018-07-27T09:58:24.188Z,20.90
2018-07-27T10:00:57.920Z,21.00
2018-07-27T10:03:26.238Z,21.37
2018-07-27T10:05:54.677Z,20.57
2018-07-27T10:08:22.942Z,20.20
2018-07-27T10:10:51.248Z,19.23
2018-07-27T10:13:19.689Z,19.40
2018-07-27T10:15:48.050Z,19.17
2018-07-27T10:18:16.390Z,18.80
2018-07-27T10:20:44.707Z,18.10
2018-07-27T10:23:13.041Z,17.10
2018-07-27T10:25:41.456Z,18.00
2018-07-27T10:28:09.750Z,17.77
2018-07-27T10:30:38.125Z,18.13
2018-07-27T10:33:06.453Z,18.00
2018-07-27T10:35:34.767Z,16.60
2018-07-27T10:38:03.124Z,17.10
2018-07-27T10:40:31.452Z,17.23
2018-07-27T10:42:59.792Z,16.37
2018-07-27T10:45:28.108Z,15.77
2018-07-27T10:47:56.435Z,15.83
2018-07-27T10:50:24.770Z,15.80
2018-07-27T10:52:53.116Z,15.43
2018-07-27T10:55:21.437Z,14.33
2018-07-27T10:57:49.726Z,15.17
2018-07-27T11:00:18.061Z,14.13
2018-07-27T11:02:46.376Z,14.23
2018-07-27T11:05:14.694Z,14.50
2018-07-27T11:07:43.151Z,14.27
2018-07-27T11:10:13.147Z,12.87
2018-07-27T11:12:41.465Z,13.53
2018-07-27T11:15:10.503Z,13.40
2018-07-27T11:17:39.334Z,13.23
2018-07-27T11:20:08.318Z,13.53
2018-07-27T11:22:36.675Z,12.73
2018-07-27T11:25:05.261Z,12.63
2018-07-27T11:27:33.346Z,12.57
2018-07-27T11:30:01.807Z,13.07
2018-07-27T11:32:30.110Z,11.93
2018-07-27T11:34:58.689Z,21.77
2018-07-27T11:37:27.062Z,22.30
2018-07-27T11:39:55.290Z,47.13
2018-07-27T11:42:23.672Z,36.00
2018-07-27T11:44:51.965Z,61.57
2018-07-27T11:47:20.279Z,48.63
2018-07-27T11:49:48.649Z,39.97
2018-07-27T11:52:16.947Z,38.37
2018-07-27T11:54:45.289Z,37.53
2018-07-27T11:57:13.617Z,35.80
2018-07-27T11:59:41.923Z,34.40
2018-07-27T12:02:10.284Z,32.87
2018-07-27T12:04:38.575Z,30.93
2018-07-27T12:07:06.986Z,29.87
2018-07-27T12:09:35.293Z,33.60
2018-07-27T12:12:03.623Z,34.53
2018-07-27T12:14:32.063Z,42.43
2018-07-27T12:17:00.401Z,42.97
2018-07-27T12:19:28.702Z,40.27
2018-07-27T12:21:57.096Z,38.97
2018-07-27T12:24:25.513Z,38.37
2018-07-27T12:26:53.791Z,38.33
2018-07-27T12:29:22.162Z,37.90
2018-07-27T12:31:50.493Z,36.73
2018-07-27T12:34:18.801Z,35.57
2018-07-27T12:36:47.182Z,35.90
2018-07-27T12:39:15.667Z,36.60
2018-07-27T12:41:44.028Z,34.47
2018-07-27T12:44:12.376Z,32.63
2018-07-27T12:46:40.550Z,36.87
2018-07-27T12:49:09.507Z,142.57
2018-07-27T12:51:38.007Z,134.37
2018-07-27T12:54:06.498Z,142.03
2018-07-27T12:56:34.955Z,128.77
2018-07-27T12:59:03.092Z,130.53
2018-07-27T13:01:31.446Z,121.17
2018-07-27T13:03:59.798Z,123.30
2018-07-27T13:06:28.132Z,118.10
2018-07-27T13:08:56.474Z,109.90
2018-07-27T13:11:24.939Z,101.10
2018-07-27T13:13:53.266Z,103.60
2018-07-27T13:16:21.599Z,105.27
2018-07-27T13:18:49.947Z,106.30
2018-07-27T13:21:18.315Z,103.17
2018-07-27T13:23:54.395Z,101.43
2018-07-27T13:28:51.092Z,92.33
2018-07-27T13:31:24.551Z,93.13
2018-07-27T13:33:58.351Z,86.63
2018-07-27T13:36:26.692Z,83.23
2018-07-27T13:38:55.026Z,84.13
2018-07-27T13:41:23.353Z,85.43
2018-07-27T13:43:51.726Z,88.33
2018-07-27T13:46:20.021Z,83.37
2018-07-27T13:48:48.395Z,83.17
2018-07-27T13:51:16.770Z,81.33
2018-07-27T13:53:45.143Z,82.10
2018-07-27T13:56:13.506Z,80.47
2018-07-27T13:58:41.834Z,78.20
2018-07-27T14:01:10.183Z,75.67
2018-07-27T14:03:38.587Z,73.40
2018-07-27T14:06:06.934Z,73.07
2018-07-27T14:08:35.590Z,68.47
2018-07-27T14:11:03.935Z,64.90
2018-07-27T14:13:32.250Z,65.93
2018-07-27T14:16:00.566Z,67.13
2018-07-27T14:18:28.871Z,66.60
2018-07-27T14:20:57.205Z,64.73
2018-07-27T14:23:25.503Z,63.13
2018-07-27T14:25:53.843Z,63.17
2018-07-27T14:28:22.240Z,62.00
2018-07-27T14:30:50.603Z,59.53
2018-07-27T14:33:18.920Z,59.30
2018-07-27T14:35:47.248Z,56.17
2018-07-27T14:38:15.673Z,56.20
2018-07-27T14:40:44.020Z,56.33
2018-07-27T14:43:12.370Z,57.43
2018-07-27T14:45:40.678Z,57.27
2018-07-27T14:48:09.128Z,56.63
2018-07-27T14:50:37.440Z,55.47
2018-07-27T14:53:06.057Z,51.77
2018-07-27T14:55:34.380Z,53.20
2018-07-27T14:58:03.138Z,53.67
2018-07-27T15:00:31.456Z,51.73
2018-07-27T15:02:59.780Z,50.83
2018-07-27T15:05:28.102Z,50.37
2018-07-27T15:07:56.475Z,49.53
2018-07-27T15:10:24.808Z,47.07
2018-07-27T15:12:53.141Z,48.67
2018-07-27T15:15:21.551Z,48.37
2018-07-27T15:17:50.047Z,46.03
2018-07-27T15:20:18.357Z,44.70
2018-07-27T15:22:46.663Z,45.53
2018-07-27T15:25:15.082Z,45.70
2018-07-27T15:27:43.775Z,42.10
2018-07-27T15:30:12.205Z,42.23
2018-07-27T15:32:40.511Z,45.73
2018-07-27T15:35:08.847Z,45.27
2018-07-27T15:37:37.164Z,45.50
2018-07-27T15:40:05.452Z,46.87
2018-07-27T15:42:33.807Z,45.17
2018-07-27T15:45:02.106Z,44.37
2018-07-27T15:47:30.740Z,43.93
2018-07-27T15:49:59.103Z,43.73
2018-07-27T15:52:27.444Z,46.93
2018-07-27T15:54:55.772Z,51.17
2018-07-27T15:57:24.097Z,58.57
2018-07-27T15:59:52.403Z,67.70
2018-07-27T16:02:20.783Z,71.83
2018-07-27T16:04:48.974Z,77.80
2018-07-27T16:07:17.070Z,89.30
2018-07-27T16:09:45.409Z,89.07
2018-07-27T16:12:13.763Z,84.23
2018-07-27T16:14:42.080Z,79.10
2018-07-27T16:17:10.399Z,77.13
2018-07-27T16:19:38.712Z,69.50
2018-07-27T16:22:07.062Z,70.00
2018-07-27T16:24:35.354Z,68.00
2018-07-27T16:27:03.667Z,68.40
2018-07-27T16:29:31.734Z,69.00
2018-07-27T16:32:00.135Z,66.77
2018-07-27T16:34:28.464Z,67.27
2018-07-27T16:36:56.799Z,67.17
2018-07-27T16:39:25.104Z,64.17
2018-07-27T16:41:53.444Z,62.30
2018-07-27T16:44:21.775Z,62.73
2018-07-27T16:46:50.379Z,62.87
2018-07-27T16:49:18.736Z,58.00
2018-07-27T16:51:47.065Z,53.23
2018-07-27T16:54:15.380Z,51.03
2018-07-27T16:56:43.704Z,52.17
2018-07-27T16:59:11.812Z,51.13
2018-07-27T17:01:40.143Z,50.03
2018-07-27T17:04:08.466Z,48.13
2018-07-27T17:06:36.779Z,47.33
2018-07-27T17:09:08.024Z,48.97
2018-07-27T17:11:36.350Z,458.50
2018-07-27T17:14:04.716Z,380.17
2018-07-27T17:16:33.021Z,333.33
2018-07-27T17:19:01.367Z,318.97
2018-07-27T17:21:29.806Z,298.73
2018-07-27T17:23:58.143Z,288.67
2018-07-27T17:26:26.504Z,281.43
2018-07-27T17:28:54.836Z,276.40
2018-07-27T17:31:23.187Z,267.10
2018-07-27T17:33:51.513Z,257.80
2018-07-27T17:36:19.843Z,251.67
2018-07-27T17:38:48.175Z,149.87
2018-07-27T17:41:16.512Z,176.50
2018-07-27T17:43:44.875Z,192.73
2018-07-27T17:46:13.198Z,189.93
2018-07-27T17:48:41.532Z,187.87
2018-07-27T17:51:09.858Z,188.43
2018-07-27T17:53:38.183Z,182.87
2018-07-27T17:56:06.775Z,172.80
2018-07-27T17:58:35.173Z,166.23
2018-07-27T18:01:03.897Z,166.23
2018-07-27T18:03:32.210Z,161.23
2018-07-27T18:06:00.551Z,149.90
2018-07-27T18:08:29.005Z,145.73
2018-07-27T18:10:57.375Z,132.77
2018-07-27T18:13:25.723Z,130.70
2018-07-27T18:15:54.040Z,126.80
2018-07-27T18:18:22.117Z,119.83
2018-07-27T18:20:50.477Z,22.53
2018-07-27T18:23:18.807Z,13.93
2018-07-27T18:25:47.157Z,15.20
2018-07-27T18:28:15.470Z,11.77
2018-07-27T18:30:43.858Z,8.20
2018-07-27T18:33:12.278Z,6.93
2018-07-27T18:35:40.667Z,32.43
2018-07-27T18:38:09.102Z,9.40
2018-07-27T18:40:37.460Z,24.87
2018-07-27T18:43:05.877Z,16.67
2018-07-27T18:45:34.319Z,13.00
2018-07-27T18:48:02.638Z,6.73
2018-07-27T18:50:31.073Z,6.40
2018-07-27T18:52:59.552Z,6.77
2018-07-27T18:55:27.870Z,5.60
2018-07-27T18:57:56.260Z,5.90
2018-07-27T19:00:24.614Z,5.63
2018-07-27T19:02:52.933Z,5.23
2018-07-27T19:05:21.328Z,4.50
2018-07-27T19:07:49.638Z,5.20
2018-07-27T19:10:17.979Z,4.50
2018-07-27T19:12:46.321Z,4.87
2018-07-27T19:15:14.700Z,5.37
2018-07-27T19:17:43.047Z,4.47
2018-07-27T19:20:11.380Z,5.37
2018-07-27T19:22:39.699Z,5.03
2018-07-27T19:25:08.032Z,5.20
2018-07-27T19:27:36.367Z,5.20
2018-07-27T19:30:06.937Z,4.77
2018-07-27T19:32:35.276Z,5.43
2018-07-27T19:35:03.627Z,5.33
2018-07-27T19:37:32.133Z,5.47
2018-07-27T19:40:00.443Z,5.67
2018-07-27T19:42:28.911Z,5.53
2018-07-27T19:44:57.236Z,5.80
2018-07-27T19:47:25.555Z,6.00
2018-07-27T19:49:53.864Z,6.90
2018-07-27T19:52:22.178Z,6.23
2018-07-27T19:54:50.244Z,6.30
2018-07-27T19:57:18.532Z,5.63
2018-07-27T19:59:46.848Z,5.80
2018-07-27T20:02:15.204Z,5.87
2018-07-27T20:04:43.731Z,5.80
2018-07-27T20:07:12.075Z,5.63
2018-07-27T20:09:40.464Z,5.60
2018-07-27T20:12:08.810Z,4.90
2018-07-27T20:14:37.132Z,5.63
2018-07-27T20:17:05.574Z,5.50
2018-07-27T20:19:33.890Z,5.70
2018-07-27T20:22:02.193Z,5.20
2018-07-27T20:24:30.487Z,5.00
2018-07-27T20:26:58.569Z,6.03
2018-07-27T20:29:26.911Z,8.70
2018-07-27T20:31:55.264Z,8.17
2018-07-27T20:34:23.693Z,8.73
2018-07-27T20:36:52.066Z,21.57
2018-07-27T20:39:20.401Z,25.90
2018-07-27T20:41:48.727Z,30.30
2018-07-27T20:44:17.075Z,27.80
2018-07-27T20:46:45.428Z,23.33
2018-07-27T20:49:13.772Z,16.67
2018-07-27T20:51:42.226Z,13.97
2018-07-27T20:54:10.946Z,20.03
2018-07-27T20:56:39.352Z,42.17
2018-07-27T20:59:07.692Z,22.40
2018-07-27T21:01:36.028Z,21.33
2018-07-27T21:04:04.504Z,16.73
2018-07-27T21:06:32.869Z,14.97
2018-07-27T21:09:01.256Z,23.57
2018-07-27T21:11:29.593Z,15.47
2018-07-27T21:13:57.941Z,14.00
2018-07-27T21:16:26.141Z,11.90
2018-07-27T21:18:54.445Z,6.60
2018-07-27T21:21:22.760Z,7.10
2018-07-27T21:23:51.107Z,6.43
2018-07-27T21:26:19.603Z,7.57
2018-07-27T21:28:47.893Z,7.10
2018-07-27T21:31:16.228Z,7.70
2018-07-27T21:33:44.550Z,9.77
2018-07-27T21:36:12.861Z,8.27
2018-07-27T21:38:41.230Z,9.63
2018-07-27T21:41:09.543Z,8.83
2018-07-27T21:43:37.901Z,8.87
2018-07-27T21:46:06.059Z,6.77
2018-07-27T21:48:34.356Z,6.53
2018-07-27T21:51:02.686Z,7.00
2018-07-27T21:53:31.086Z,6.80
2018-07-27T21:55:59.439Z,6.87
2018-07-27T21:58:27.764Z,6.33
2018-07-27T22:00:56.093Z,6.80
2018-07-27T22:03:24.665Z,6.80
2018-07-27T22:05:53.201Z,6.83
2018-07-27T22:08:21.677Z,6.53
2018-07-27T22:10:50.214Z,6.27
2018-07-27T22:13:19.014Z,12.87
2018-07-27T22:15:47.583Z,15.70
2018-07-27T22:18:15.933Z,17.50
2018-07-27T22:20:44.328Z,12.07
2018-07-27T22:23:13.108Z,7.93
2018-07-27T22:25:41.646Z,7.23
2018-07-27T22:30:35.611Z,6.03
2018-07-27T22:33:04.315Z,6.00
2018-07-27T22:35:32.849Z,6.50
2018-07-27T22:38:01.268Z,6.83
2018-07-27T22:40:29.763Z,6.67
2018-07-27T22:42:58.011Z,21.90
2018-07-27T22:45:26.293Z,24.43
2018-07-27T22:47:54.663Z,9.07
2018-07-27T22:50:23.156Z,9.87
2018-07-27T22:52:51.916Z,10.90
2018-07-27T22:55:20.229Z,10.33
2018-07-27T22:57:48.549Z,10.33
2018-07-27T23:00:17.022Z,8.50
2018-07-27T23:02:45.655Z,7.67
2018-07-27T23:05:14.294Z,8.37
2018-07-27T23:07:42.809Z,6.93
2018-07-27T23:10:11.543Z,7.33
2018-07-27T23:12:40.269Z,8.03
2018-07-27T23:15:10.838Z,10.90
2018-07-27T23:17:39.366Z,18.60
2018-07-27T23:20:11.874Z,12.27
2018-07-27T23:22:40.484Z,8.83
2018-07-27T23:25:09.187Z,7.63
2018-07-27T23:27:37.920Z,7.40
2018-07-27T23:30:08.526Z,7.33
2018-07-27T23:32:37.056Z,7.37
2018-07-27T23:35:05.656Z,8.50
2018-07-27T23:37:34.123Z,10.63
2018-07-27T23:40:02.726Z,9.40
2018-07-27T23:42:31.335Z,11.27
2018-07-27T23:44:59.691Z,9.83
2018-07-27T23:47:28.162Z,8.93
2018-07-27T23:49:56.616Z,8.03
2018-07-27T23:52:24.922Z,8.23
2018-07-27T23:54:53.290Z,8.07
2018-07-27T23:57:21.624Z,7.03
2018-07-27T23:59:49.637Z,7.67
